sensor_id;sensor_type;location;lat;lon;timestamp;P1;durP1;ratioP1;P2;durP2;ratioP2
65691;SDS011;52411;52.716;6.696;2023-02-20T00:00:27;13.35;;;8.65;;
65691;SDS011;52411;52.716;6.696;2023-02-20T00:02:54;13.02;;;8.75;;
65691;SDS011;52411;52.716;6.696;2023-02-20T00:05:20;15.20;;;10.13;;
65691;SDS011;52411;52.716;6.696;2023-02-20T00:07:46;17.30;;;11.25;;
65691;SDS011;52411;52.716;6.696;2023-02-20T00:10:12;16.65;;;11.32;;
65691;SDS011;52411;52.716;6.696;2023-02-20T00:12:38;15.73;;;10.52;;
65691;SDS011;52411;52.716;6.696;2023-02-20T00:15:04;18.95;;;11.55;;
65691;SDS011;52411;52.716;6.696;2023-02-20T00:17:30;17.52;;;12.82;;
65691;SDS011;52411;52.716;6.696;2023-02-20T00:19:55;20.05;;;12.82;;
65691;SDS011;52411;52.716;6.696;2023-02-20T00:22:21;16.92;;;11.35;;
65691;SDS011;52411;52.716;6.696;2023-02-20T00:24:48;18.20;;;10.90;;
65691;SDS011;52411;52.716;6.696;2023-02-20T00:27:14;16.65;;;10.95;;
65691;SDS011;52411;52.716;6.696;2023-02-20T00:29:39;17.35;;;11.35;;
65691;SDS011;52411;52.716;6.696;2023-02-20T00:32:05;17.52;;;10.38;;
65691;SDS011;52411;52.716;6.696;2023-02-20T00:34:30;16.00;;;10.27;;
65691;SDS011;52411;52.716;6.696;2023-02-20T00:36:56;18.25;;;10.82;;
65691;SDS011;52411;52.716;6.696;2023-02-20T00:39:22;18.90;;;11.25;;
65691;SDS011;52411;52.716;6.696;2023-02-20T00:41:47;19.35;;;11.63;;
65691;SDS011;52411;52.716;6.696;2023-02-20T00:44:13;17.15;;;11.15;;
65691;SDS011;52411;52.716;6.696;2023-02-20T00:46:39;15.88;;;9.43;;
65691;SDS011;52411;52.716;6.696;2023-02-20T00:49:05;17.73;;;10.65;;
65691;SDS011;52411;52.716;6.696;2023-02-20T00:51:30;17.92;;;11.68;;
65691;SDS011;52411;52.716;6.696;2023-02-20T00:53:57;19.42;;;11.00;;
65691;SDS011;52411;52.716;6.696;2023-02-20T00:56:23;16.73;;;10.90;;
65691;SDS011;52411;52.716;6.696;2023-02-20T00:58:49;20.25;;;12.20;;
65691;SDS011;52411;52.716;6.696;2023-02-20T01:01:14;20.60;;;12.82;;
65691;SDS011;52411;52.716;6.696;2023-02-20T01:03:41;19.40;;;13.60;;
65691;SDS011;52411;52.716;6.696;2023-02-20T01:06:07;20.75;;;12.98;;
65691;SDS011;52411;52.716;6.696;2023-02-20T01:08:33;18.48;;;12.90;;
65691;SDS011;52411;52.716;6.696;2023-02-20T01:10:59;17.25;;;11.23;;
65691;SDS011;52411;52.716;6.696;2023-02-20T01:13:24;23.67;;;12.00;;
65691;SDS011;52411;52.716;6.696;2023-02-20T01:15:50;19.25;;;11.00;;
65691;SDS011;52411;52.716;6.696;2023-02-20T01:18:16;19.27;;;13.13;;
65691;SDS011;52411;52.716;6.696;2023-02-20T01:20:42;17.80;;;10.50;;
65691;SDS011;52411;52.716;6.696;2023-02-20T01:23:07;19.27;;;10.73;;
65691;SDS011;52411;52.716;6.696;2023-02-20T01:25:33;20.15;;;10.80;;
65691;SDS011;52411;52.716;6.696;2023-02-20T01:27:59;20.23;;;11.02;;
65691;SDS011;52411;52.716;6.696;2023-02-20T01:30:24;19.48;;;12.10;;
65691;SDS011;52411;52.716;6.696;2023-02-20T01:32:50;17.50;;;10.38;;
65691;SDS011;52411;52.716;6.696;2023-02-20T01:35:15;20.55;;;11.05;;
65691;SDS011;52411;52.716;6.696;2023-02-20T01:37:41;19.70;;;10.75;;
65691;SDS011;52411;52.716;6.696;2023-02-20T01:40:07;19.58;;;10.45;;
65691;SDS011;52411;52.716;6.696;2023-02-20T01:42:38;19.23;;;10.93;;
65691;SDS011;52411;52.716;6.696;2023-02-20T01:45:18;18.15;;;9.85;;
65691;SDS011;52411;52.716;6.696;2023-02-20T01:47:51;17.75;;;9.88;;
65691;SDS011;52411;52.716;6.696;2023-02-20T01:50:20;16.88;;;10.32;;
65691;SDS011;52411;52.716;6.696;2023-02-20T01:52:52;17.50;;;9.93;;
65691;SDS011;52411;52.716;6.696;2023-02-20T01:55:24;18.80;;;10.70;;
65691;SDS011;52411;52.716;6.696;2023-02-20T01:58:02;21.35;;;11.45;;
65691;SDS011;52411;52.716;6.696;2023-02-20T02:00:32;20.05;;;10.98;;
65691;SDS011;52411;52.716;6.696;2023-02-20T02:03:04;24.00;;;11.77;;
65691;SDS011;52411;52.716;6.696;2023-02-20T02:05:41;18.17;;;10.40;;
65691;SDS011;52411;52.716;6.696;2023-02-20T02:08:09;21.17;;;11.80;;
65691;SDS011;52411;52.716;6.696;2023-02-20T02:13:32;22.27;;;11.35;;
65691;SDS011;52411;52.716;6.696;2023-02-20T02:19:02;26.65;;;11.25;;
65691;SDS011;52411;52.716;6.696;2023-02-20T02:22:22;25.58;;;11.02;;
65691;SDS011;52411;52.716;6.696;2023-02-20T02:28:02;22.70;;;12.43;;
65691;SDS011;52411;52.716;6.696;2023-02-20T02:30:52;22.27;;;12.38;;
65691;SDS011;52411;52.716;6.696;2023-02-20T02:38:46;21.15;;;12.05;;
65691;SDS011;52411;52.716;6.696;2023-02-20T02:41:20;27.30;;;11.63;;
65691;SDS011;52411;52.716;6.696;2023-02-20T02:44:12;25.20;;;11.90;;
65691;SDS011;52411;52.716;6.696;2023-02-20T02:46:54;23.67;;;11.35;;
65691;SDS011;52411;52.716;6.696;2023-02-20T02:52:14;24.38;;;12.63;;
65691;SDS011;52411;52.716;6.696;2023-02-20T02:55:02;24.20;;;11.75;;
65691;SDS011;52411;52.716;6.696;2023-02-20T02:57:38;22.90;;;12.57;;
65691;SDS011;52411;52.716;6.696;2023-02-20T03:00:23;23.55;;;12.70;;
65691;SDS011;52411;52.716;6.696;2023-02-20T03:02:56;21.92;;;12.75;;
65691;SDS011;52411;52.716;6.696;2023-02-20T03:05:44;26.75;;;14.35;;
65691;SDS011;52411;52.716;6.696;2023-02-20T03:10:56;24.33;;;13.50;;
65691;SDS011;52411;52.716;6.696;2023-02-20T03:13:29;24.63;;;14.02;;
65691;SDS011;52411;52.716;6.696;2023-02-20T03:16:20;25.88;;;15.70;;
65691;SDS011;52411;52.716;6.696;2023-02-20T03:19:02;27.67;;;15.35;;
65691;SDS011;52411;52.716;6.696;2023-02-20T03:21:33;27.77;;;15.18;;
65691;SDS011;52411;52.716;6.696;2023-02-20T03:24:00;26.80;;;15.80;;
65691;SDS011;52411;52.716;6.696;2023-02-20T03:26:30;29.92;;;15.25;;
65691;SDS011;52411;52.716;6.696;2023-02-20T03:29:05;26.13;;;15.53;;
65691;SDS011;52411;52.716;6.696;2023-02-20T03:31:40;32.25;;;16.88;;
65691;SDS011;52411;52.716;6.696;2023-02-20T03:34:13;31.95;;;18.63;;
65691;SDS011;52411;52.716;6.696;2023-02-20T03:37:05;32.70;;;18.05;;
65691;SDS011;52411;52.716;6.696;2023-02-20T03:39:54;32.83;;;17.95;;
65691;SDS011;52411;52.716;6.696;2023-02-20T03:42:45;32.17;;;18.35;;
65691;SDS011;52411;52.716;6.696;2023-02-20T03:45:34;28.83;;;15.27;;
65691;SDS011;52411;52.716;6.696;2023-02-20T03:48:13;34.17;;;17.42;;
65691;SDS011;52411;52.716;6.696;2023-02-20T03:50:42;34.55;;;19.35;;
65691;SDS011;52411;52.716;6.696;2023-02-20T03:53:26;33.97;;;18.95;;
65691;SDS011;52411;52.716;6.696;2023-02-20T03:55:53;31.58;;;20.52;;
65691;SDS011;52411;52.716;6.696;2023-02-20T03:58:22;35.97;;;20.38;;
65691;SDS011;52411;52.716;6.696;2023-02-20T04:00:50;38.17;;;20.90;;
65691;SDS011;52411;52.716;6.696;2023-02-20T04:03:19;36.08;;;19.75;;
65691;SDS011;52411;52.716;6.696;2023-02-20T04:05:48;39.03;;;19.52;;
65691;SDS011;52411;52.716;6.696;2023-02-20T04:11:05;38.08;;;21.20;;
65691;SDS011;52411;52.716;6.696;2023-02-20T04:13:34;36.30;;;21.45;;
65691;SDS011;52411;52.716;6.696;2023-02-20T04:16:02;38.17;;;21.55;;
65691;SDS011;52411;52.716;6.696;2023-02-20T04:18:29;41.83;;;21.13;;
65691;SDS011;52411;52.716;6.696;2023-02-20T04:20:56;42.70;;;21.65;;
65691;SDS011;52411;52.716;6.696;2023-02-20T04:23:25;39.83;;;21.60;;
65691;SDS011;52411;52.716;6.696;2023-02-20T04:25:55;40.55;;;22.02;;
65691;SDS011;52411;52.716;6.696;2023-02-20T04:28:21;39.78;;;21.73;;
65691;SDS011;52411;52.716;6.696;2023-02-20T04:30:48;48.70;;;25.33;;
65691;SDS011;52411;52.716;6.696;2023-02-20T04:33:15;46.83;;;24.88;;
65691;SDS011;52411;52.716;6.696;2023-02-20T04:35:41;45.40;;;23.55;;
65691;SDS011;52411;52.716;6.696;2023-02-20T04:38:07;47.75;;;25.00;;
65691;SDS011;52411;52.716;6.696;2023-02-20T04:40:34;42.28;;;23.10;;
65691;SDS011;52411;52.716;6.696;2023-02-20T04:43:00;41.50;;;21.30;;
65691;SDS011;52411;52.716;6.696;2023-02-20T04:45:25;50.30;;;25.38;;
65691;SDS011;52411;52.716;6.696;2023-02-20T04:47:51;44.88;;;22.23;;
65691;SDS011;52411;52.716;6.696;2023-02-20T04:50:21;46.70;;;22.90;;
65691;SDS011;52411;52.716;6.696;2023-02-20T04:52:51;49.35;;;23.92;;
65691;SDS011;52411;52.716;6.696;2023-02-20T04:55:17;43.85;;;22.98;;
65691;SDS011;52411;52.716;6.696;2023-02-20T04:57:44;47.75;;;23.30;;
65691;SDS011;52411;52.716;6.696;2023-02-20T05:00:10;51.70;;;24.08;;
65691;SDS011;52411;52.716;6.696;2023-02-20T05:02:37;50.22;;;23.35;;
65691;SDS011;52411;52.716;6.696;2023-02-20T05:05:03;41.22;;;21.52;;
65691;SDS011;52411;52.716;6.696;2023-02-20T05:07:31;53.33;;;24.08;;
65691;SDS011;52411;52.716;6.696;2023-02-20T05:09:57;45.80;;;22.73;;
65691;SDS011;52411;52.716;6.696;2023-02-20T05:12:22;45.45;;;22.52;;
65691;SDS011;52411;52.716;6.696;2023-02-20T05:14:48;44.78;;;22.10;;
65691;SDS011;52411;52.716;6.696;2023-02-20T05:17:14;41.08;;;21.55;;
65691;SDS011;52411;52.716;6.696;2023-02-20T05:19:39;45.85;;;21.10;;
65691;SDS011;52411;52.716;6.696;2023-02-20T05:22:08;43.40;;;21.63;;
65691;SDS011;52411;52.716;6.696;2023-02-20T05:24:45;46.90;;;21.92;;
65691;SDS011;52411;52.716;6.696;2023-02-20T05:27:12;46.58;;;21.25;;
65691;SDS011;52411;52.716;6.696;2023-02-20T05:32:11;49.30;;;23.25;;
65691;SDS011;52411;52.716;6.696;2023-02-20T05:34:37;49.20;;;22.05;;
65691;SDS011;52411;52.716;6.696;2023-02-20T05:37:03;41.28;;;21.15;;
65691;SDS011;52411;52.716;6.696;2023-02-20T05:39:29;43.90;;;21.50;;
65691;SDS011;52411;52.716;6.696;2023-02-20T05:41:54;47.50;;;21.48;;
65691;SDS011;52411;52.716;6.696;2023-02-20T05:44:20;47.15;;;21.73;;
65691;SDS011;52411;52.716;6.696;2023-02-20T05:46:45;51.83;;;21.27;;
65691;SDS011;52411;52.716;6.696;2023-02-20T05:49:11;47.92;;;21.15;;
65691;SDS011;52411;52.716;6.696;2023-02-20T05:51:37;44.35;;;21.63;;
65691;SDS011;52411;52.716;6.696;2023-02-20T05:54:03;48.97;;;21.35;;
65691;SDS011;52411;52.716;6.696;2023-02-20T05:56:29;47.47;;;21.17;;
65691;SDS011;52411;52.716;6.696;2023-02-20T05:58:56;50.28;;;22.33;;
65691;SDS011;52411;52.716;6.696;2023-02-20T06:01:24;44.63;;;21.55;;
65691;SDS011;52411;52.716;6.696;2023-02-20T06:03:50;50.13;;;20.05;;
65691;SDS011;52411;52.716;6.696;2023-02-20T06:06:16;45.05;;;21.60;;
65691;SDS011;52411;52.716;6.696;2023-02-20T06:08:43;40.40;;;20.05;;
65691;SDS011;52411;52.716;6.696;2023-02-20T06:11:09;48.20;;;19.13;;
65691;SDS011;52411;52.716;6.696;2023-02-20T06:13:40;43.40;;;20.15;;
65691;SDS011;52411;52.716;6.696;2023-02-20T06:16:06;44.65;;;19.38;;
65691;SDS011;52411;52.716;6.696;2023-02-20T06:18:32;39.90;;;19.48;;
65691;SDS011;52411;52.716;6.696;2023-02-20T06:20:58;42.70;;;19.63;;
65691;SDS011;52411;52.716;6.696;2023-02-20T06:23:24;44.13;;;21.35;;
65691;SDS011;52411;52.716;6.696;2023-02-20T06:25:49;43.60;;;20.10;;
65691;SDS011;52411;52.716;6.696;2023-02-20T06:28:15;42.72;;;20.63;;
65691;SDS011;52411;52.716;6.696;2023-02-20T06:30:40;44.88;;;20.10;;
65691;SDS011;52411;52.716;6.696;2023-02-20T06:33:06;40.15;;;21.65;;
65691;SDS011;52411;52.716;6.696;2023-02-20T06:35:32;35.75;;;19.23;;
65691;SDS011;52411;52.716;6.696;2023-02-20T06:37:57;44.38;;;21.30;;
65691;SDS011;52411;52.716;6.696;2023-02-20T06:40:24;33.30;;;17.73;;
65691;SDS011;52411;52.716;6.696;2023-02-20T06:42:50;37.83;;;18.95;;
65691;SDS011;52411;52.716;6.696;2023-02-20T06:45:15;37.95;;;19.17;;
65691;SDS011;52411;52.716;6.696;2023-02-20T06:47:41;38.47;;;18.85;;
65691;SDS011;52411;52.716;6.696;2023-02-20T06:50:07;44.88;;;19.88;;
65691;SDS011;52411;52.716;6.696;2023-02-20T06:52:32;41.17;;;19.58;;
65691;SDS011;52411;52.716;6.696;2023-02-20T06:54:58;37.95;;;18.88;;
65691;SDS011;52411;52.716;6.696;2023-02-20T06:57:24;35.70;;;17.90;;
65691;SDS011;52411;52.716;6.696;2023-02-20T06:59:49;39.55;;;18.92;;
65691;SDS011;52411;52.716;6.696;2023-02-20T07:02:15;36.75;;;19.55;;
65691;SDS011;52411;52.716;6.696;2023-02-20T07:04:42;37.42;;;17.65;;
65691;SDS011;52411;52.716;6.696;2023-02-20T07:07:13;36.45;;;18.58;;
65691;SDS011;52411;52.716;6.696;2023-02-20T07:09:38;35.53;;;20.33;;
65691;SDS011;52411;52.716;6.696;2023-02-20T07:12:04;45.72;;;19.77;;
65691;SDS011;52411;52.716;6.696;2023-02-20T07:14:30;36.47;;;18.17;;
65691;SDS011;52411;52.716;6.696;2023-02-20T07:16:56;38.92;;;19.50;;
65691;SDS011;52411;52.716;6.696;2023-02-20T07:19:21;35.33;;;17.08;;
65691;SDS011;52411;52.716;6.696;2023-02-20T07:21:47;35.65;;;16.65;;
65691;SDS011;52411;52.716;6.696;2023-02-20T07:24:13;33.38;;;15.57;;
65691;SDS011;52411;52.716;6.696;2023-02-20T07:26:38;38.40;;;18.15;;
65691;SDS011;52411;52.716;6.696;2023-02-20T07:29:05;33.90;;;16.65;;
65691;SDS011;52411;52.716;6.696;2023-02-20T07:31:31;37.38;;;16.20;;
65691;SDS011;52411;52.716;6.696;2023-02-20T07:33:57;31.73;;;16.13;;
65691;SDS011;52411;52.716;6.696;2023-02-20T07:36:23;33.53;;;16.70;;
65691;SDS011;52411;52.716;6.696;2023-02-20T07:38:55;33.35;;;14.45;;
65691;SDS011;52411;52.716;6.696;2023-02-20T07:41:23;30.60;;;14.02;;
65691;SDS011;52411;52.716;6.696;2023-02-20T07:43:49;33.15;;;16.48;;
65691;SDS011;52411;52.716;6.696;2023-02-20T07:46:15;30.13;;;15.45;;
65691;SDS011;52411;52.716;6.696;2023-02-20T07:48:41;36.90;;;17.30;;
65691;SDS011;52411;52.716;6.696;2023-02-20T07:51:07;31.45;;;15.57;;
65691;SDS011;52411;52.716;6.696;2023-02-20T07:53:33;31.58;;;14.82;;
65691;SDS011;52411;52.716;6.696;2023-02-20T07:55:58;33.88;;;15.18;;
65691;SDS011;52411;52.716;6.696;2023-02-20T07:58:24;34.63;;;16.98;;
65691;SDS011;52411;52.716;6.696;2023-02-20T08:00:49;31.95;;;14.32;;
65691;SDS011;52411;52.716;6.696;2023-02-20T08:03:16;37.13;;;15.68;;
65691;SDS011;52411;52.716;6.696;2023-02-20T08:05:42;36.10;;;17.65;;
65691;SDS011;52411;52.716;6.696;2023-02-20T08:08:08;30.73;;;15.93;;
65691;SDS011;52411;52.716;6.696;2023-02-20T08:10:34;34.03;;;16.80;;
65691;SDS011;52411;52.716;6.696;2023-02-20T08:13:00;31.83;;;16.17;;
65691;SDS011;52411;52.716;6.696;2023-02-20T08:15:26;32.65;;;15.15;;
65691;SDS011;52411;52.716;6.696;2023-02-20T08:17:52;32.08;;;15.00;;
65691;SDS011;52411;52.716;6.696;2023-02-20T08:20:18;34.05;;;15.57;;
65691;SDS011;52411;52.716;6.696;2023-02-20T08:22:45;31.60;;;17.38;;
65691;SDS011;52411;52.716;6.696;2023-02-20T08:25:12;34.03;;;15.35;;
65691;SDS011;52411;52.716;6.696;2023-02-20T08:27:45;32.63;;;16.67;;
65691;SDS011;52411;52.716;6.696;2023-02-20T08:30:13;33.45;;;14.95;;
65691;SDS011;52411;52.716;6.696;2023-02-20T08:32:42;26.52;;;14.07;;
65691;SDS011;52411;52.716;6.696;2023-02-20T08:35:08;29.52;;;15.05;;
65691;SDS011;52411;52.716;6.696;2023-02-20T08:37:33;26.40;;;13.98;;
65691;SDS011;52411;52.716;6.696;2023-02-20T08:39:59;28.55;;;15.27;;
65691;SDS011;52411;52.716;6.696;2023-02-20T08:42:30;27.02;;;15.10;;
65691;SDS011;52411;52.716;6.696;2023-02-20T08:44:56;28.60;;;14.50;;
65691;SDS011;52411;52.716;6.696;2023-02-20T08:47:22;26.75;;;13.45;;
65691;SDS011;52411;52.716;6.696;2023-02-20T08:49:47;26.45;;;16.05;;
65691;SDS011;52411;52.716;6.696;2023-02-20T08:52:13;30.30;;;14.43;;
65691;SDS011;52411;52.716;6.696;2023-02-20T08:54:39;29.10;;;13.00;;
65691;SDS011;52411;52.716;6.696;2023-02-20T08:57:08;32.47;;;13.70;;
65691;SDS011;52411;52.716;6.696;2023-02-20T08:59:34;30.10;;;14.57;;
65691;SDS011;52411;52.716;6.696;2023-02-20T09:02:01;31.33;;;13.70;;
65691;SDS011;52411;52.716;6.696;2023-02-20T09:04:26;28.30;;;12.10;;
65691;SDS011;52411;52.716;6.696;2023-02-20T09:06:52;25.30;;;12.60;;
65691;SDS011;52411;52.716;6.696;2023-02-20T09:09:18;30.77;;;14.32;;
65691;SDS011;52411;52.716;6.696;2023-02-20T09:11:43;28.92;;;12.40;;
65691;SDS011;52411;52.716;6.696;2023-02-20T09:14:09;23.95;;;12.70;;
65691;SDS011;52411;52.716;6.696;2023-02-20T09:16:34;26.98;;;14.00;;
65691;SDS011;52411;52.716;6.696;2023-02-20T09:19:00;30.50;;;13.05;;
65691;SDS011;52411;52.716;6.696;2023-02-20T09:21:25;26.13;;;12.95;;
65691;SDS011;52411;52.716;6.696;2023-02-20T09:23:53;21.95;;;12.15;;
65691;SDS011;52411;52.716;6.696;2023-02-20T09:26:19;25.15;;;12.30;;
65691;SDS011;52411;52.716;6.696;2023-02-20T09:28:44;24.15;;;12.18;;
65691;SDS011;52411;52.716;6.696;2023-02-20T09:31:10;31.90;;;12.48;;
65691;SDS011;52411;52.716;6.696;2023-02-20T09:33:35;26.83;;;12.77;;
65691;SDS011;52411;52.716;6.696;2023-02-20T09:36:01;20.35;;;12.00;;
65691;SDS011;52411;52.716;6.696;2023-02-20T09:38:27;26.50;;;12.15;;
65691;SDS011;52411;52.716;6.696;2023-02-20T09:40:57;19.88;;;9.88;;
65691;SDS011;52411;52.716;6.696;2023-02-20T09:43:29;26.92;;;13.38;;
65691;SDS011;52411;52.716;6.696;2023-02-20T09:46:19;28.85;;;11.70;;
65691;SDS011;52411;52.716;6.696;2023-02-20T09:51:27;27.48;;;11.98;;
65691;SDS011;52411;52.716;6.696;2023-02-20T09:54:09;24.90;;;13.02;;
65691;SDS011;52411;52.716;6.696;2023-02-20T09:56:37;24.13;;;11.23;;
65691;SDS011;52411;52.716;6.696;2023-02-20T09:59:14;22.83;;;10.48;;
65691;SDS011;52411;52.716;6.696;2023-02-20T10:01:52;21.98;;;11.02;;
65691;SDS011;52411;52.716;6.696;2023-02-20T10:09:48;25.85;;;10.85;;
65691;SDS011;52411;52.716;6.696;2023-02-20T10:15:02;22.55;;;10.85;;
65691;SDS011;52411;52.716;6.696;2023-02-20T10:17:52;22.15;;;11.27;;
65691;SDS011;52411;52.716;6.696;2023-02-20T10:20:49;24.55;;;11.93;;
65691;SDS011;52411;52.716;6.696;2023-02-20T10:23:33;19.80;;;11.30;;
65691;SDS011;52411;52.716;6.696;2023-02-20T10:26:12;19.00;;;9.80;;
65691;SDS011;52411;52.716;6.696;2023-02-20T10:28:46;22.70;;;11.07;;
65691;SDS011;52411;52.716;6.696;2023-02-20T10:31:21;20.10;;;9.70;;
65691;SDS011;52411;52.716;6.696;2023-02-20T10:34:06;23.63;;;11.45;;
65691;SDS011;52411;52.716;6.696;2023-02-20T10:41:40;23.15;;;9.82;;
65691;SDS011;52411;52.716;6.696;2023-02-20T10:44:22;25.85;;;10.25;;
65691;SDS011;52411;52.716;6.696;2023-02-20T10:47:13;22.55;;;11.70;;
65691;SDS011;52411;52.716;6.696;2023-02-20T10:50:00;24.10;;;10.50;;
65691;SDS011;52411;52.716;6.696;2023-02-20T10:52:36;21.13;;;9.45;;
65691;SDS011;52411;52.716;6.696;2023-02-20T10:55:55;21.70;;;10.93;;
65691;SDS011;52411;52.716;6.696;2023-02-20T10:58:05;24.38;;;11.43;;
65691;SDS011;52411;52.716;6.696;2023-02-20T11:00:37;19.98;;;10.07;;
65691;SDS011;52411;52.716;6.696;2023-02-20T11:03:14;24.80;;;10.85;;
65691;SDS011;52411;52.716;6.696;2023-02-20T11:05:54;22.38;;;10.07;;
65691;SDS011;52411;52.716;6.696;2023-02-20T11:08:23;22.63;;;10.25;;
65691;SDS011;52411;52.716;6.696;2023-02-20T11:10:52;18.38;;;8.90;;
65691;SDS011;52411;52.716;6.696;2023-02-20T11:13:24;18.95;;;9.60;;
65691;SDS011;52411;52.716;6.696;2023-02-20T11:15:51;20.73;;;10.50;;
65691;SDS011;52411;52.716;6.696;2023-02-20T11:18:23;24.50;;;9.95;;
65691;SDS011;52411;52.716;6.696;2023-02-20T11:20:54;21.35;;;9.65;;
65691;SDS011;52411;52.716;6.696;2023-02-20T11:23:53;21.08;;;10.90;;
65691;SDS011;52411;52.716;6.696;2023-02-20T11:28:39;19.83;;;8.95;;
65691;SDS011;52411;52.716;6.696;2023-02-20T11:31:05;19.35;;;9.75;;
65691;SDS011;52411;52.716;6.696;2023-02-20T11:33:33;22.83;;;10.65;;
65691;SDS011;52411;52.716;6.696;2023-02-20T11:36:10;17.40;;;9.60;;
65691;SDS011;52411;52.716;6.696;2023-02-20T11:38:40;16.15;;;8.70;;
65691;SDS011;52411;52.716;6.696;2023-02-20T11:41:09;17.52;;;9.77;;
65691;SDS011;52411;52.716;6.696;2023-02-20T11:46:28;19.55;;;9.65;;
65691;SDS011;52411;52.716;6.696;2023-02-20T11:51:39;17.45;;;8.73;;
65691;SDS011;52411;52.716;6.696;2023-02-20T11:54:12;18.48;;;8.68;;
65691;SDS011;52411;52.716;6.696;2023-02-20T11:59:29;19.52;;;7.95;;
65691;SDS011;52411;52.716;6.696;2023-02-20T12:04:40;20.42;;;8.57;;
65691;SDS011;52411;52.716;6.696;2023-02-20T12:09:42;20.83;;;8.52;;
65691;SDS011;52411;52.716;6.696;2023-02-20T12:12:10;14.23;;;7.60;;
65691;SDS011;52411;52.716;6.696;2023-02-20T12:14:38;16.25;;;7.70;;
65691;SDS011;52411;52.716;6.696;2023-02-20T12:19:59;14.82;;;7.40;;
65691;SDS011;52411;52.716;6.696;2023-02-20T12:22:53;16.95;;;8.05;;
65691;SDS011;52411;52.716;6.696;2023-02-20T12:25:27;18.15;;;8.13;;
65691;SDS011;52411;52.716;6.696;2023-02-20T12:52:29;13.57;;;7.32;;
65691;SDS011;52411;52.716;6.696;2023-02-20T12:58:20;15.02;;;7.82;;
65691;SDS011;52411;52.716;6.696;2023-02-20T13:01:00;18.25;;;7.13;;
65691;SDS011;52411;52.716;6.696;2023-02-20T13:06:05;16.45;;;7.82;;
65691;SDS011;52411;52.716;6.696;2023-02-20T13:08:36;15.93;;;7.97;;
65691;SDS011;52411;52.716;6.696;2023-02-20T13:11:12;19.35;;;8.15;;
65691;SDS011;52411;52.716;6.696;2023-02-20T13:16:23;15.55;;;7.60;;
65691;SDS011;52411;52.716;6.696;2023-02-20T13:21:35;18.70;;;7.97;;
65691;SDS011;52411;52.716;6.696;2023-02-20T13:26:48;18.10;;;7.97;;
65691;SDS011;52411;52.716;6.696;2023-02-20T13:29:22;20.85;;;7.47;;
65691;SDS011;52411;52.716;6.696;2023-02-20T13:31:57;13.90;;;7.53;;
65691;SDS011;52411;52.716;6.696;2023-02-20T13:34:46;17.27;;;6.65;;
65691;SDS011;52411;52.716;6.696;2023-02-20T13:43:51;14.93;;;7.40;;
65691;SDS011;52411;52.716;6.696;2023-02-20T13:53:38;13.35;;;7.43;;
65691;SDS011;52411;52.716;6.696;2023-02-20T13:56:18;14.18;;;7.63;;
65691;SDS011;52411;52.716;6.696;2023-02-20T13:58:53;17.83;;;8.30;;
65691;SDS011;52411;52.716;6.696;2023-02-20T14:01:20;15.25;;;6.93;;
65691;SDS011;52411;52.716;6.696;2023-02-20T14:03:58;15.70;;;7.78;;
65691;SDS011;52411;52.716;6.696;2023-02-20T14:06:28;11.95;;;7.43;;
65691;SDS011;52411;52.716;6.696;2023-02-20T14:09:07;18.15;;;7.05;;
65691;SDS011;52411;52.716;6.696;2023-02-20T14:11:35;17.08;;;7.35;;
65691;SDS011;52411;52.716;6.696;2023-02-20T14:14:07;14.10;;;6.28;;
65691;SDS011;52411;52.716;6.696;2023-02-20T14:16:36;16.33;;;7.88;;
65691;SDS011;52411;52.716;6.696;2023-02-20T14:19:19;18.88;;;7.05;;
65691;SDS011;52411;52.716;6.696;2023-02-20T14:21:50;12.95;;;7.05;;
65691;SDS011;52411;52.716;6.696;2023-02-20T14:24:17;13.93;;;7.60;;
65691;SDS011;52411;52.716;6.696;2023-02-20T14:26:51;15.65;;;7.70;;
65691;SDS011;52411;52.716;6.696;2023-02-20T14:29:30;15.73;;;7.10;;
65691;SDS011;52411;52.716;6.696;2023-02-20T14:31:58;14.65;;;6.85;;
65691;SDS011;52411;52.716;6.696;2023-02-20T14:39:37;14.23;;;7.82;;
65691;SDS011;52411;52.716;6.696;2023-02-20T14:42:05;14.63;;;7.47;;
65691;SDS011;52411;52.716;6.696;2023-02-20T14:44:39;20.20;;;7.70;;
65691;SDS011;52411;52.716;6.696;2023-02-20T14:47:06;12.82;;;7.75;;
65691;SDS011;52411;52.716;6.696;2023-02-20T14:49:34;15.07;;;7.32;;
65691;SDS011;52411;52.716;6.696;2023-02-20T14:52:19;20.25;;;7.53;;
65691;SDS011;52411;52.716;6.696;2023-02-20T14:54:58;17.50;;;6.78;;
65691;SDS011;52411;52.716;6.696;2023-02-20T14:57:25;15.80;;;7.68;;
65691;SDS011;52411;52.716;6.696;2023-02-20T15:00:06;19.77;;;8.02;;
65691;SDS011;52411;52.716;6.696;2023-02-20T15:02:41;18.25;;;7.38;;
65691;SDS011;52411;52.716;6.696;2023-02-20T15:05:10;16.35;;;8.32;;
65691;SDS011;52411;52.716;6.696;2023-02-20T15:07:42;18.08;;;8.30;;
65691;SDS011;52411;52.716;6.696;2023-02-20T15:10:53;16.25;;;8.43;;
65691;SDS011;52411;52.716;6.696;2023-02-20T15:12:58;18.65;;;7.32;;
65691;SDS011;52411;52.716;6.696;2023-02-20T15:15:33;15.95;;;7.22;;
65691;SDS011;52411;52.716;6.696;2023-02-20T15:18:05;20.25;;;7.75;;
65691;SDS011;52411;52.716;6.696;2023-02-20T15:23:16;21.33;;;8.15;;
65691;SDS011;52411;52.716;6.696;2023-02-20T15:25:49;14.57;;;7.57;;
65691;SDS011;52411;52.716;6.696;2023-02-20T15:33:46;15.35;;;6.93;;
65691;SDS011;52411;52.716;6.696;2023-02-20T15:36:15;16.95;;;7.75;;
65691;SDS011;52411;52.716;6.696;2023-02-20T15:38:44;15.65;;;6.60;;
65691;SDS011;52411;52.716;6.696;2023-02-20T15:41:10;17.27;;;7.72;;
65691;SDS011;52411;52.716;6.696;2023-02-20T15:43:36;12.70;;;6.70;;
65691;SDS011;52411;52.716;6.696;2023-02-20T15:46:01;18.75;;;7.18;;
65691;SDS011;52411;52.716;6.696;2023-02-20T15:48:27;17.40;;;7.10;;
65691;SDS011;52411;52.716;6.696;2023-02-20T15:50:53;19.10;;;7.97;;
65691;SDS011;52411;52.716;6.696;2023-02-20T15:53:22;14.02;;;7.72;;
65691;SDS011;52411;52.716;6.696;2023-02-20T15:55:51;13.02;;;7.55;;
65691;SDS011;52411;52.716;6.696;2023-02-20T15:58:20;16.42;;;6.97;;
65691;SDS011;52411;52.716;6.696;2023-02-20T16:00:51;14.25;;;7.75;;
65691;SDS011;52411;52.716;6.696;2023-02-20T16:03:19;15.95;;;7.03;;
65691;SDS011;52411;52.716;6.696;2023-02-20T16:05:48;14.82;;;7.32;;
65691;SDS011;52411;52.716;6.696;2023-02-20T16:08:13;16.17;;;7.32;;
65691;SDS011;52411;52.716;6.696;2023-02-20T16:10:39;15.75;;;7.00;;
65691;SDS011;52411;52.716;6.696;2023-02-20T16:13:07;14.02;;;7.57;;
65691;SDS011;52411;52.716;6.696;2023-02-20T16:16:02;14.77;;;6.95;;
65691;SDS011;52411;52.716;6.696;2023-02-20T16:18:36;16.58;;;7.90;;
65691;SDS011;52411;52.716;6.696;2023-02-20T16:21:02;17.60;;;7.38;;
65691;SDS011;52411;52.716;6.696;2023-02-20T16:23:28;15.55;;;7.97;;
65691;SDS011;52411;52.716;6.696;2023-02-20T16:25:55;17.23;;;8.30;;
65691;SDS011;52411;52.716;6.696;2023-02-20T16:28:21;15.63;;;8.63;;
65691;SDS011;52411;52.716;6.696;2023-02-20T16:30:46;15.85;;;8.32;;
65691;SDS011;52411;52.716;6.696;2023-02-20T16:33:15;14.32;;;8.02;;
65691;SDS011;52411;52.716;6.696;2023-02-20T16:35:46;15.68;;;8.38;;
65691;SDS011;52411;52.716;6.696;2023-02-20T16:38:12;17.70;;;8.43;;
65691;SDS011;52411;52.716;6.696;2023-02-20T16:40:38;17.27;;;8.77;;
65691;SDS011;52411;52.716;6.696;2023-02-20T16:43:04;14.50;;;8.57;;
65691;SDS011;52411;52.716;6.696;2023-02-20T16:45:30;19.70;;;9.30;;
65691;SDS011;52411;52.716;6.696;2023-02-20T16:47:56;12.50;;;8.73;;